Time;durP1;ratioP1;P1;durP2;ratioP2;P2;SDS_P1;SDS_P2;PMS_P1;PMS_P2;Temp;Humidity;BMP_temperature;BMP_pressure;BME280_temperature;BME280_humidity;BME280_pressure;Samples;Min_cycle;Max_cycle;Signal;HPM_P1;HPM_P2
2023/09/25 00:01:10;;;;;;;0.20;0.20;;;13.20;99.90;;;;;;5078534;28;20499;-79
2023/09/25 00:03:36;;;;;;;0.20;0.20;;;13.20;99.90;;;;;;5087260;28;20116;-79
2023/09/25 00:06:02;;;;;;;0.20;0.20;;;13.20;99.90;;;;;;5087615;28;20121;-79
2023/09/25 00:08:28;;;;;;;0.10;0.10;;;13.20;99.90;;;;;;5080624;28;20115;-79
2023/09/25 00:10:54;;;;;;;0.20;0.20;;;13.20;99.90;;;;;;5092391;28;20643;-78
2023/09/25 00:13:20;;;;;;;0.20;0.20;;;13.20;99.90;;;;;;5082511;28;20037;-79
2023/09/25 00:15:47;;;;;;;0.10;0.10;;;13.20;99.90;;;;;;5084257;28;20044;-78
2023/09/25 00:18:14;;;;;;;0.20;0.20;;;13.20;99.90;;;;;;5090075;28;20039;-78
2023/09/25 00:20:40;;;;;;;0.20;0.20;;;13.20;99.90;;;;;;5089374;28;20526;-79
2023/09/25 00:23:15;;;;;;;0.20;0.20;;;13.20;99.90;;;;;;5091068;28;20270;-77
2023/09/25 00:25:41;;;;;;;0.20;0.20;;;13.20;99.90;;;;;;5092146;28;20165;-78
2023/09/25 00:28:07;;;;;;;0.10;0.10;;;13.20;99.90;;;;;;5091443;28;20051;-79
2023/09/25 00:30:34;;;;;;;0.20;0.20;;;13.20;99.90;;;;;;5091881;28;20146;-79
2023/09/25 00:32:59;;;;;;;0.10;0.10;;;13.20;99.90;;;;;;5096905;28;20039;-79
2023/09/25 00:35:25;;;;;;;0.17;0.17;;;13.20;99.90;;;;;;5086713;28;20101;-78
2023/09/25 00:37:50;;;;;;;0.20;0.20;;;13.30;99.90;;;;;;5085061;28;20433;-79
2023/09/25 00:40:21;;;;;;;0.15;0.15;;;13.30;99.90;;;;;;5090944;28;20081;-78
2023/09/25 00:42:55;;;;;;;0.20;0.20;;;13.20;99.90;;;;;;5084284;28;20044;-78
2023/09/25 00:45:21;;;;;;;0.20;0.20;;;13.10;99.90;;;;;;5091453;28;20051;-79
2023/09/25 00:47:49;;;;;;;0.10;0.10;;;13.20;99.90;;;;;;5082859;28;20135;-78
2023/09/25 00:50:17;;;;;;;0.10;0.10;;;13.20;99.90;;;;;;5089480;28;20028;-78
2023/09/25 00:52:44;;;;;;;0.10;0.10;;;13.20;99.90;;;;;;5083070;28;20048;-79
2023/09/25 00:55:12;;;;;;;0.10;0.10;;;13.20;99.90;;;;;;5087503;28;20123;-79
2023/09/25 00:57:38;;;;;;;0.10;0.10;;;13.20;99.90;;;;;;5091375;28;20097;-79
2023/09/25 01:00:10;;;;;;;0.13;0.13;;;13.30;99.90;;;;;;5083471;28;20278;-79
2023/09/25 01:02:37;;;;;;;0.10;0.10;;;13.20;99.90;;;;;;5093665;28;20084;-79
2023/09/25 01:05:06;;;;;;;0.10;0.10;;;13.30;99.90;;;;;;5078713;28;20128;-82
2023/09/25 01:07:32;;;;;;;0.13;0.13;;;13.20;99.90;;;;;;5081009;28;20044;-78
2023/09/25 01:10:08;;;;;;;0.10;0.10;;;13.20;99.90;;;;;;5086072;28;20040;-78
2023/09/25 01:12:34;;;;;;;0.10;0.10;;;13.20;99.90;;;;;;5087648;28;20051;-79
2023/09/25 01:15:01;;;;;;;0.20;0.20;;;13.20;99.90;;;;;;5083177;28;20058;-79
2023/09/25 01:17:27;;;;;;;0.13;0.13;;;13.20;99.90;;;;;;5089727;28;20629;-79
2023/09/25 01:19:54;;;;;;;0.10;0.10;;;13.20;99.90;;;;;;5086177;28;20036;-77
2023/09/25 01:22:19;;;;;;;0.20;0.20;;;13.20;99.90;;;;;;5081888;28;20098;-79
2023/09/25 01:24:45;;;;;;;0.10;0.10;;;13.10;99.90;;;;;;5095100;28;20036;-79
2023/09/25 01:27:11;;;;;;;0.20;0.20;;;13.10;99.90;;;;;;5085022;28;20051;-78
2023/09/25 01:29:37;;;;;;;0.10;0.10;;;13.10;99.90;;;;;;5088743;28;20044;-79
2023/09/25 01:32:03;;;;;;;0.10;0.10;;;13.10;99.90;;;;;;5083810;28;20063;-79
2023/09/25 01:34:28;;;;;;;0.10;0.10;;;13.10;99.90;;;;;;5086840;28;20094;-79
2023/09/25 01:36:54;;;;;;;0.10;0.10;;;13.10;99.90;;;;;;5091887;28;20570;-79
2023/09/25 01:39:20;;;;;;;0.10;0.10;;;13.10;99.90;;;;;;5087729;28;20023;-79
2023/09/25 01:41:46;;;;;;;0.20;0.20;;;13.10;99.90;;;;;;5088695;28;20055;-78
2023/09/25 01:44:12;;;;;;;0.20;0.20;;;13.00;99.90;;;;;;5067409;28;20538;-79
2023/09/25 01:46:40;;;;;;;0.10;0.10;;;13.10;99.90;;;;;;5087345;28;20113;-79
2023/09/25 01:49:07;;;;;;;0.20;0.20;;;13.10;99.90;;;;;;5086482;28;20040;-80
2023/09/25 01:51:33;;;;;;;0.20;0.20;;;13.40;99.90;;;;;;5088661;28;20407;-78
2023/09/25 01:53:58;;;;;;;0.10;0.10;;;13.00;99.90;;;;;;5084847;28;20107;-79
2023/09/25 01:56:24;;;;;;;0.20;0.20;;;13.00;99.90;;;;;;5083879;28;20055;-80
2023/09/25 01:58:49;;;;;;;0.20;0.20;;;13.00;99.90;;;;;;5084632;28;20086;-78
2023/09/25 02:01:15;;;;;;;0.10;0.10;;;13.00;99.90;;;;;;5083994;28;20067;-78
2023/09/25 02:03:44;;;;;;;0.20;0.20;;;13.00;99.90;;;;;;5088717;28;20399;-79
2023/09/25 02:06:10;;;;;;;0.20;0.20;;;13.30;99.90;;;;;;5093615;28;20036;-78
2023/09/25 02:08:35;;;;;;;0.10;0.10;;;13.00;99.90;;;;;;5084165;28;20608;-78
2023/09/25 02:11:01;;;;;;;0.10;0.10;;;12.90;99.90;;;;;;5088170;28;20063;-79
2023/09/25 02:13:27;;;;;;;0.10;0.10;;;13.20;99.90;;;;;;5079502;28;20112;-78
2023/09/25 02:15:54;;;;;;;0.10;0.10;;;12.90;99.90;;;;;;5087550;28;20055;-78
2023/09/25 02:18:19;;;;;;;0.10;0.10;;;12.90;99.90;;;;;;5082525;28;20143;-79
2023/09/25 02:20:46;;;;;;;0.10;0.10;;;12.90;99.90;;;;;;5085467;28;20144;-79
2023/09/25 02:23:11;;;;;;;0.10;0.10;;;12.90;99.90;;;;;;5088212;28;20452;-78
2023/09/25 02:25:37;;;;;;;0.10;0.10;;;12.90;99.90;;;;;;5085231;28;20130;-79
2023/09/25 02:28:03;;;;;;;0.10;0.10;;;12.90;99.90;;;;;;5087912;28;20076;-78
2023/09/25 02:30:28;;;;;;;0.10;0.10;;;12.90;99.90;;;;;;5081179;28;20482;-78
2023/09/25 02:32:54;;;;;;;0.10;0.10;;;12.90;99.90;;;;;;5083452;28;20040;-77
2023/09/25 02:35:20;;;;;;;0.20;0.20;;;12.90;99.90;;;;;;5085283;28;20539;-79
2023/09/25 02:37:45;;;;;;;0.10;0.10;;;12.90;99.90;;;;;;5084970;28;20495;-78
2023/09/25 02:40:14;;;;;;;0.10;0.10;;;12.80;99.90;;;;;;5085483;28;20078;-79
2023/09/25 02:42:41;;;;;;;0.20;0.20;;;12.80;99.90;;;;;;5084249;28;20074;-77
2023/09/25 02:45:08;;;;;;;0.20;0.20;;;13.20;99.90;;;;;;5090473;28;20043;-79
2023/09/25 02:47:33;;;;;;;0.10;0.10;;;12.80;99.90;;;;;;5075746;28;20056;-78
2023/09/25 02:50:00;;;;;;;0.20;0.20;;;12.80;99.90;;;;;;5087835;28;20514;-77
2023/09/25 02:52:26;;;;;;;0.10;0.10;;;12.80;99.90;;;;;;5086615;28;20441;-78
2023/09/25 02:54:52;;;;;;;0.13;0.13;;;12.80;99.90;;;;;;5089316;28;20036;-77
2023/09/25 02:57:18;;;;;;;0.10;0.10;;;12.70;99.90;;;;;;5086612;28;20483;-78
2023/09/25 02:59:43;;;;;;;0.17;0.17;;;12.70;99.90;;;;;;5080771;28;21014;-79
2023/09/25 03:02:09;;;;;;;0.10;0.10;;;12.90;99.90;;;;;;5086406;28;20035;-78
2023/09/25 03:04:34;;;;;;;0.10;0.10;;;12.70;99.90;;;;;;5087737;28;20093;-79
2023/09/25 03:07:03;;;;;;;0.10;0.10;;;12.70;99.90;;;;;;5089521;28;20050;-79
2023/09/25 03:09:29;;;;;;;0.17;0.17;;;12.80;99.90;;;;;;5084417;28;20036;-77
2023/09/25 03:11:55;;;;;;;0.10;0.10;;;12.60;99.90;;;;;;5084480;28;20063;-79
2023/09/25 03:14:21;;;;;;;0.20;0.20;;;12.60;99.90;;;;;;5093737;28;20048;-79
2023/09/25 03:16:48;;;;;;;0.10;0.10;;;12.70;99.90;;;;;;5084314;28;20059;-78
2023/09/25 03:19:14;;;;;;;0.13;0.13;;;12.60;99.90;;;;;;5101135;27;20084;-79
2023/09/25 03:21:41;;;;;;;0.20;0.20;;;12.60;99.90;;;;;;5089206;28;20043;-79
2023/09/25 03:24:09;;;;;;;0.20;0.20;;;12.60;99.90;;;;;;5085845;28;20044;-78
2023/09/25 03:26:36;;;;;;;0.10;0.10;;;12.60;99.90;;;;;;5093645;28;20055;-78
2023/09/25 03:29:02;;;;;;;0.20;0.20;;;12.60;99.90;;;;;;5087115;28;20056;-78
2023/09/25 03:31:28;;;;;;;0.13;0.13;;;12.60;99.90;;;;;;5085955;28;20044;-79
2023/09/25 03:33:53;;;;;;;0.13;0.13;;;12.60;99.90;;;;;;5086936;28;20189;-78
2023/09/25 03:36:19;;;;;;;0.20;0.20;;;12.60;99.90;;;;;;5085076;28;21248;-78
2023/09/25 03:38:45;;;;;;;0.10;0.10;;;12.70;99.90;;;;;;5087930;28;20047;-78
2023/09/25 03:41:10;;;;;;;0.20;0.20;;;12.60;99.90;;;;;;5078182;28;20059;-79
2023/09/25 03:43:36;;;;;;;0.10;0.10;;;12.50;99.90;;;;;;5086756;28;20035;-78
2023/09/25 03:46:02;;;;;;;0.17;0.17;;;12.60;99.90;;;;;;5083741;28;20135;-78
2023/09/25 03:48:28;;;;;;;0.20;0.20;;;12.50;99.90;;;;;;5089470;28;20044;-78
2023/09/25 03:50:54;;;;;;;0.10;0.10;;;12.60;99.90;;;;;;5087182;28;20036;-80
2023/09/25 03:53:20;;;;;;;0.20;0.20;;;12.50;99.90;;;;;;5090628;28;20080;-79
2023/09/25 03:55:46;;;;;;;0.20;0.20;;;12.50;99.90;;;;;;5082153;28;20116;-77
2023/09/25 03:58:12;;;;;;;0.20;0.20;;;12.60;99.90;;;;;;5081577;28;20454;-78
2023/09/25 04:00:38;;;;;;;0.10;0.10;;;12.50;99.90;;;;;;5092339;28;20122;-78
2023/09/25 04:03:04;;;;;;;0.10;0.10;;;12.60;99.90;;;;;;5094030;28;20042;-78
2023/09/25 04:05:31;;;;;;;0.10;0.10;;;12.50;99.90;;;;;;5093244;28;20043;-78
2023/09/25 04:07:58;;;;;;;0.10;0.10;;;12.50;99.90;;;;;;5088109;28;20557;-78
2023/09/25 04:10:27;;;;;;;0.10;0.10;;;12.50;99.90;;;;;;5094305;28;20402;-77
2023/09/25 04:12:53;;;;;;;0.20;0.20;;;12.50;99.90;;;;;;5090302;28;20075;-77
2023/09/25 04:15:22;;;;;;;0.20;0.20;;;12.50;99.90;;;;;;5079129;28;20059;-79
2023/09/25 04:17:50;;;;;;;0.10;0.10;;;12.50;99.90;;;;;;5090561;28;20059;-77
2023/09/25 04:20:17;;;;;;;0.20;0.20;;;12.50;99.90;;;;;;5089522;28;20067;-77
2023/09/25 04:22:44;;;;;;;0.20;0.20;;;12.40;99.90;;;;;;5095390;28;20055;-77
2023/09/25 04:25:20;;;;;;;0.20;0.20;;;12.50;99.90;;;;;;5087470;28;20051;-78
2023/09/25 04:27:52;;;;;;;0.20;0.20;;;12.50;99.90;;;;;;5087562;28;20052;-77
2023/09/25 04:30:19;;;;;;;0.10;0.10;;;12.50;99.90;;;;;;5096298;28;20041;-77
2023/09/25 04:32:46;;;;;;;0.20;0.20;;;12.40;99.90;;;;;;5087757;28;20070;-78
2023/09/25 04:35:12;;;;;;;0.17;0.17;;;12.50;99.90;;;;;;5088892;28;20044;-77
2023/09/25 04:37:44;;;;;;;0.17;0.17;;;12.50;99.90;;;;;;5088728;28;20051;-77
2023/09/25 04:40:25;;;;;;;0.10;0.10;;;12.40;99.90;;;;;;5097701;28;20032;-79
2023/09/25 04:42:51;;;;;;;0.10;0.10;;;12.40;99.90;;;;;;5080755;28;20066;-79
2023/09/25 04:45:18;;;;;;;0.10;0.10;;;12.50;99.90;;;;;;5081685;28;20508;-78
2023/09/25 04:47:48;;;;;;;0.20;0.20;;;12.40;99.90;;;;;;5085501;28;20052;-79
2023/09/25 04:50:15;;;;;;;0.10;0.10;;;12.50;99.90;;;;;;5081396;28;20077;-77
2023/09/25 04:52:41;;;;;;;0.13;0.13;;;12.40;99.90;;;;;;5090520;28;20441;-77
2023/09/25 04:55:10;;;;;;;0.10;0.10;;;12.50;99.90;;;;;;5090521;28;20491;-77
2023/09/25 04:57:37;;;;;;;0.20;0.20;;;12.40;99.90;;;;;;5083372;28;20051;-78
2023/09/25 05:00:22;;;;;;;0.20;0.20;;;12.40;99.90;;;;;;5090960;28;20524;-77
2023/09/25 05:02:49;;;;;;;0.15;0.15;;;12.40;99.90;;;;;;5083279;28;20040;-77
2023/09/25 05:05:16;;;;;;;0.10;0.10;;;12.40;99.90;;;;;;5083483;28;20036;-78
2023/09/25 05:07:49;;;;;;;0.10;0.10;;;12.40;99.90;;;;;;5094209;28;20130;-78
2023/09/25 05:10:17;;;;;;;0.10;0.10;;;12.40;99.90;;;;;;5084600;28;20032;-78
2023/09/25 05:12:43;;;;;;;0.20;0.20;;;12.40;99.90;;;;;;5088831;28;20391;-77
2023/09/25 05:15:13;;;;;;;0.17;0.17;;;12.40;99.90;;;;;;5086591;28;20097;-77
2023/09/25 05:17:40;;;;;;;0.10;0.10;;;12.40;99.90;;;;;;5079795;28;20914;-77
2023/09/25 05:20:11;;;;;;;0.10;0.10;;;12.40;99.90;;;;;;5089011;28;20342;-78
2023/09/25 05:22:42;;;;;;;0.20;0.20;;;12.40;99.90;;;;;;5084288;28;20040;-78
2023/09/25 05:25:10;;;;;;;0.20;0.20;;;12.40;99.90;;;;;;5088389;28;20075;-79
2023/09/25 05:27:36;;;;;;;0.17;0.17;;;12.40;99.90;;;;;;5081769;28;20036;-78
2023/09/25 05:30:05;;;;;;;0.10;0.10;;;12.40;99.90;;;;;;5088209;28;20202;-77
2023/09/25 05:32:32;;;;;;;0.10;0.10;;;12.40;99.90;;;;;;5089214;28;20040;-78
2023/09/25 05:34:58;;;;;;;0.17;0.17;;;12.40;99.90;;;;;;5085240;28;20067;-76
2023/09/25 05:37:24;;;;;;;0.20;0.20;;;12.40;99.90;;;;;;5089834;28;20459;-78
2023/09/25 05:39:50;;;;;;;0.20;0.20;;;12.40;99.90;;;;;;5084379;28;20068;-78
2023/09/25 05:42:15;;;;;;;0.20;0.20;;;12.40;99.90;;;;;;5087990;28;20448;-78
2023/09/25 05:44:41;;;;;;;0.20;0.20;;;12.40;99.90;;;;;;5086833;28;20494;-78
2023/09/25 05:47:06;;;;;;;0.10;0.10;;;12.40;99.90;;;;;;5084734;28;20391;-79
2023/09/25 05:49:33;;;;;;;0.20;0.20;;;12.40;99.90;;;;;;5086810;28;20462;-79
2023/09/25 05:52:00;;;;;;;0.17;0.17;;;12.40;99.90;;;;;;5082680;28;20135;-79
2023/09/25 05:54:26;;;;;;;0.20;0.20;;;12.40;99.90;;;;;;5086673;28;20044;-78
2023/09/25 05:56:52;;;;;;;0.20;0.20;;;12.40;99.90;;;;;;5080293;28;20040;-79
2023/09/25 05:59:18;;;;;;;0.10;0.10;;;12.40;99.90;;;;;;5079423;28;20058;-78
2023/09/25 06:01:44;;;;;;;0.10;0.10;;;12.40;99.90;;;;;;5083987;28;20081;-79
2023/09/25 06:04:10;;;;;;;0.10;0.10;;;12.50;99.90;;;;;;5088103;28;20047;-79
2023/09/25 06:06:36;;;;;;;0.20;0.20;;;12.50;99.90;;;;;;5085215;28;20048;-80
2023/09/25 06:09:02;;;;;;;0.20;0.20;;;12.30;99.90;;;;;;5078633;28;20068;-78
2023/09/25 06:11:31;;;;;;;0.10;0.10;;;12.50;99.90;;;;;;5088226;28;20054;-78
2023/09/25 06:13:56;;;;;;;0.10;0.10;;;12.50;99.90;;;;;;5084961;28;20036;-78
2023/09/25 06:16:22;;;;;;;0.10;0.10;;;12.50;99.90;;;;;;5087327;28;20384;-78
2023/09/25 06:18:48;;;;;;;0.10;0.10;;;12.50;99.90;;;;;;5087036;28;20070;-78
2023/09/25 06:21:14;;;;;;;0.20;0.20;;;12.60;99.90;;;;;;5088021;28;20044;-78
2023/09/25 06:23:40;;;;;;;0.13;0.13;;;12.60;99.90;;;;;;5088217;28;20050;-77
2023/09/25 06:26:08;;;;;;;0.10;0.10;;;12.60;99.90;;;;;;5086961;28;20068;-79
2023/09/25 06:28:35;;;;;;;0.10;0.10;;;13.00;99.90;;;;;;5087596;28;20044;-78
2023/09/25 06:31:00;;;;;;;0.20;0.20;;;12.60;99.90;;;;;;5081482;28;20068;-78
2023/09/25 06:33:28;;;;;;;0.15;0.15;;;12.70;99.90;;;;;;5089084;28;20076;-80
2023/09/25 06:35:54;;;;;;;0.10;0.10;;;12.70;99.90;;;;;;5084475;28;20128;-80
2023/09/25 06:38:20;;;;;;;0.17;0.17;;;12.80;99.90;;;;;;5087333;28;20122;-81
2023/09/25 06:40:46;;;;;;;0.20;0.20;;;12.80;99.90;;;;;;5084301;28;20036;-80
2023/09/25 06:43:13;;;;;;;0.20;0.20;;;12.80;99.90;;;;;;5091410;28;20570;-79
2023/09/25 06:45:43;;;;;;;0.20;0.20;;;12.90;99.90;;;;;;5078726;28;20615;-78
2023/09/25 06:48:08;;;;;;;0.10;0.10;;;12.90;99.90;;;;;;5084033;28;20085;-78
2023/09/25 06:50:35;;;;;;;0.15;0.15;;;12.90;99.90;;;;;;5081289;28;20084;-76
2023/09/25 06:53:02;;;;;;;0.20;0.20;;;12.90;99.90;;;;;;5092442;28;20039;-77
2023/09/25 06:55:27;;;;;;;0.10;0.10;;;12.90;99.90;;;;;;5085429;28;20094;-76
2023/09/25 06:57:53;;;;;;;0.20;0.20;;;13.00;99.90;;;;;;5076910;28;20718;-77
2023/09/25 07:00:19;;;;;;;0.20;0.20;;;13.00;99.90;;;;;;5081655;28;20086;-78
2023/09/25 07:02:45;;;;;;;0.10;0.10;;;13.00;99.90;;;;;;5080678;28;20059;-77
2023/09/25 07:05:11;;;;;;;0.15;0.15;;;13.10;99.90;;;;;;5086604;28;20126;-77
2023/09/25 07:07:37;;;;;;;0.10;0.10;;;13.10;99.90;;;;;;5084992;28;20408;-77
2023/09/25 07:10:09;;;;;;;0.10;0.10;;;13.00;99.90;;;;;;5084884;28;20078;-78
2023/09/25 07:12:35;;;;;;;0.10;0.10;;;13.10;99.90;;;;;;5089671;28;20058;-78
2023/09/25 07:15:02;;;;;;;0.10;0.10;;;13.10;99.90;;;;;;5080923;28;20056;-78
2023/09/25 07:17:29;;;;;;;0.10;0.10;;;13.10;99.90;;;;;;5084880;28;20044;-77
2023/09/25 07:19:56;;;;;;;0.10;0.10;;;13.20;99.90;;;;;;5088030;28;20032;-76
2023/09/25 07:22:23;;;;;;;0.10;0.10;;;13.20;99.90;;;;;;5086039;28;20059;-77
2023/09/25 07:24:50;;;;;;;0.10;0.10;;;13.20;99.90;;;;;;5082904;28;20047;-77
2023/09/25 07:27:16;;;;;;;0.10;0.10;;;13.30;99.90;;;;;;5082803;28;20047;-78
2023/09/25 07:29:46;;;;;;;0.20;0.20;;;13.30;99.90;;;;;;5088089;28;20048;-78
2023/09/25 07:32:12;;;;;;;0.10;0.10;;;13.30;99.90;;;;;;5085292;28;20044;-77
2023/09/25 07:34:42;;;;;;;0.10;0.10;;;13.40;99.90;;;;;;5087840;28;20136;-79
2023/09/25 07:37:08;;;;;;;0.10;0.10;;;13.40;99.90;;;;;;5083473;28;20093;-78
2023/09/25 07:39:38;;;;;;;0.10;0.10;;;13.50;99.90;;;;;;5082247;28;20079;-77
2023/09/25 07:42:04;;;;;;;0.20;0.20;;;13.50;99.90;;;;;;5084533;28;20047;-78
2023/09/25 07:44:34;;;;;;;0.10;0.10;;;13.60;99.90;;;;;;5087054;28;20046;-78
2023/09/25 07:47:06;;;;;;;0.10;0.10;;;13.60;99.90;;;;;;5083832;28;20130;-77
2023/09/25 07:49:40;;;;;;;0.10;0.10;;;13.70;99.90;;;;;;5085139;28;20544;-78
2023/09/25 07:52:15;;;;;;;0.10;0.10;;;13.70;99.90;;;;;;5083155;28;20051;-77
2023/09/25 07:54:45;;;;;;;0.10;0.10;;;13.80;99.90;;;;;;5094626;28;20044;-77
2023/09/25 07:57:15;;;;;;;0.10;0.10;;;13.90;99.90;;;;;;5091220;28;20048;-76
2023/09/25 07:59:44;;;;;;;0.13;0.13;;;13.90;99.90;;;;;;5089259;28;20051;-77
2023/09/25 08:02:12;;;;;;;0.10;0.10;;;14.00;99.90;;;;;;5085083;28;20031;-77
2023/09/25 08:04:38;;;;;;;0.17;0.17;;;14.10;99.90;;;;;;5083340;28;20056;-76
2023/09/25 08:07:03;;;;;;;0.17;0.17;;;14.10;99.90;;;;;;5083644;28;20892;-77
2023/09/25 08:09:30;;;;;;;0.20;0.20;;;14.20;99.90;;;;;;5085856;28;20055;-78
2023/09/25 08:11:55;;;;;;;0.20;0.20;;;14.20;99.90;;;;;;5084698;28;20054;-77
2023/09/25 08:14:21;;;;;;;0.20;0.20;;;14.30;99.90;;;;;;5083812;28;20821;-78
2023/09/25 08:16:47;;;;;;;0.20;0.20;;;14.30;99.90;;;;;;5079145;28;20071;-77
2023/09/25 08:19:13;;;;;;;0.10;0.10;;;14.40;99.90;;;;;;5096451;28;20052;-77
2023/09/25 08:21:39;;;;;;;0.20;0.20;;;14.50;99.90;;;;;;5092724;28;20212;-77
2023/09/25 08:24:05;;;;;;;0.20;0.20;;;14.50;99.90;;;;;;5087274;28;20494;-77
2023/09/25 08:26:31;;;;;;;0.13;0.13;;;14.60;99.90;;;;;;5092124;28;20453;-77
2023/09/25 08:28:57;;;;;;;0.10;0.10;;;14.60;99.90;;;;;;5090414;28;20040;-77
2023/09/25 08:31:23;;;;;;;0.20;0.20;;;14.60;99.90;;;;;;5089097;28;20067;-77
2023/09/25 08:33:49;;;;;;;0.20;0.20;;;14.70;99.90;;;;;;5091243;28;20123;-77
2023/09/25 08:36:15;;;;;;;0.10;0.10;;;14.80;99.90;;;;;;5093020;28;20193;-78
2023/09/25 08:38:40;;;;;;;0.10;0.10;;;14.80;99.90;;;;;;5087841;28;20036;-77
2023/09/25 08:41:06;;;;;;;0.20;0.20;;;14.90;99.90;;;;;;5088614;28;20051;-78
2023/09/25 08:43:33;;;;;;;0.10;0.10;;;14.90;99.90;;;;;;5088092;28;20128;-77
2023/09/25 08:45:59;;;;;;;0.10;0.10;;;15.00;99.90;;;;;;5091454;28;20036;-77
2023/09/25 08:48:25;;;;;;;0.10;0.10;;;15.10;99.90;;;;;;5082566;28;20040;-77
2023/09/25 08:50:51;;;;;;;0.17;0.17;;;15.10;99.90;;;;;;5079557;28;20028;-77
2023/09/25 08:53:18;;;;;;;0.10;0.10;;;15.20;99.90;;;;;;5089127;28;20411;-78
2023/09/25 08:55:43;;;;;;;0.20;0.20;;;15.30;99.90;;;;;;5086462;28;20513;-77
2023/09/25 08:58:10;;;;;;;0.20;0.20;;;15.40;99.90;;;;;;5088344;28;20071;-78
2023/09/25 09:00:37;;;;;;;0.10;0.10;;;15.50;99.90;;;;;;5084858;28;20044;-77
2023/09/25 09:03:04;;;;;;;0.10;0.10;;;15.60;99.90;;;;;;5086824;28;20063;-77
2023/09/25 09:05:30;;;;;;;0.20;0.20;;;15.70;99.90;;;;;;5090495;28;20063;-77
2023/09/25 09:08:05;;;;;;;0.10;0.10;;;15.70;99.90;;;;;;5089083;28;20035;-77
2023/09/25 09:10:37;;;;;;;0.20;0.20;;;15.90;99.90;;;;;;5087161;28;20040;-78
2023/09/25 09:13:10;;;;;;;0.17;0.17;;;15.90;99.90;;;;;;5088517;28;20047;-77
2023/09/25 09:15:36;;;;;;;0.15;0.15;;;16.00;99.90;;;;;;5087172;28;20052;-77
2023/09/25 09:18:22;;;;;;;0.20;0.20;;;16.10;99.90;;;;;;5079613;28;20046;-78
2023/09/25 09:20:49;;;;;;;0.20;0.20;;;16.20;99.90;;;;;;5089641;28;20055;-78
2023/09/25 09:23:15;;;;;;;0.10;0.10;;;16.20;99.90;;;;;;5090430;28;20044;-78
2023/09/25 09:25:48;;;;;;;0.20;0.20;;;16.30;99.90;;;;;;5087993;28;20040;-77
2023/09/25 09:28:14;;;;;;;0.10;0.10;;;16.40;99.90;;;;;;5086386;28;20220;-78
2023/09/25 09:30:41;;;;;;;0.10;0.10;;;16.40;99.90;;;;;;5086795;28;20488;-78
2023/09/25 09:33:10;;;;;;;0.15;0.15;;;16.40;99.90;;;;;;5088755;28;20055;-78
2023/09/25 09:35:37;;;;;;;0.10;0.10;;;16.50;99.90;;;;;;5087822;28;20068;-78
2023/09/25 09:38:05;;;;;;;0.20;0.20;;;16.60;99.90;;;;;;5088170;28;20101;-77
2023/09/25 09:40:31;;;;;;;0.20;0.20;;;16.60;99.90;;;;;;5089291;28;20062;-78
2023/09/25 09:42:58;;;;;;;0.20;0.20;;;16.70;99.90;;;;;;5088539;28;20072;-77
2023/09/25 09:45:24;;;;;;;0.20;0.20;;;16.70;99.90;;;;;;5084364;28;20044;-77
2023/09/25 09:47:51;;;;;;;0.10;0.10;;;16.70;99.90;;;;;;5088631;28;20070;-78
2023/09/25 09:50:22;;;;;;;0.15;0.15;;;16.80;99.90;;;;;;5089236;28;20787;-77
2023/09/25 09:52:49;;;;;;;0.20;0.20;;;16.90;99.90;;;;;;5088657;28;20093;-78
2023/09/25 09:55:15;;;;;;;0.20;0.20;;;16.90;99.90;;;;;;5090018;28;20044;-77
2023/09/25 09:57:41;;;;;;;0.20;0.20;;;17.00;99.90;;;;;;5088619;28;20044;-77
2023/09/25 10:00:08;;;;;;;0.10;0.10;;;17.10;99.90;;;;;;5088646;28;20097;-78
2023/09/25 10:02:35;;;;;;;0.20;0.20;;;17.10;99.90;;;;;;5086140;28;21977;-77
2023/09/25 10:05:02;;;;;;;0.20;0.20;;;17.20;99.90;;;;;;5088930;28;20051;-78
2023/09/25 10:07:29;;;;;;;0.10;0.10;;;17.30;99.90;;;;;;5087048;28;20036;-79
2023/09/25 10:09:56;;;;;;;0.20;0.20;;;17.30;99.90;;;;;;5088536;28;20520;-78
2023/09/25 10:12:47;;;;;;;0.20;0.20;;;17.40;99.90;;;;;;5088358;28;20055;-78
2023/09/25 10:15:19;;;;;;;0.20;0.20;;;17.40;99.90;;;;;;5086075;28;20052;-77
2023/09/25 10:17:48;;;;;;;0.13;0.13;;;17.50;99.90;;;;;;5079188;28;20119;-78
2023/09/25 10:20:49;;;;;;;0.20;0.20;;;17.60;99.90;;;;;;5080043;28;20077;-78
2023/09/25 10:23:22;;;;;;;0.10;0.10;;;17.70;99.90;;;;;;5043897;28;20051;-77
2023/09/25 10:25:54;;;;;;;0.20;0.20;;;17.70;99.90;;;;;;5081121;28;20063;-78
2023/09/25 10:28:26;;;;;;;0.20;0.20;;;17.90;99.90;;;;;;5087063;28;20036;-77
2023/09/25 10:30:55;;;;;;;;;;;17.90;99.90;;;;;;5086863;28;20177;-77
2023/09/25 10:33:21;;;;;;;0.20;0.20;;;18.00;99.90;;;;;;5086847;28;19920;-78
2023/09/25 10:35:49;;;;;;;0.25;0.25;;;18.10;99.90;;;;;;5085739;28;20070;-78
2023/09/25 10:38:15;;;;;;;0.20;0.20;;;18.10;99.90;;;;;;5085058;28;20123;-75
2023/09/25 10:40:46;;;;;;;0.20;0.20;;;18.20;99.90;;;;;;5087097;28;20166;-78
2023/09/25 10:43:14;;;;;;;0.20;0.20;;;18.20;99.90;;;;;;5086042;28;20074;-75
2023/09/25 10:45:39;;;;;;;0.10;0.10;;;18.30;99.90;;;;;;5083219;28;20040;-78
2023/09/25 10:48:06;;;;;;;0.20;0.20;;;18.40;99.90;;;;;;5083367;28;20142;-79
2023/09/25 10:50:32;;;;;;;0.20;0.20;;;18.40;99.90;;;;;;5088528;28;20044;-78
2023/09/25 10:52:58;;;;;;;0.10;0.10;;;18.40;99.90;;;;;;5087573;28;20376;-78
2023/09/25 10:55:24;;;;;;;0.20;0.20;;;18.50;99.90;;;;;;5087653;28;20101;-78
2023/09/25 10:57:50;;;;;;;0.20;0.20;;;18.50;99.90;;;;;;5087964;28;20047;-78
2023/09/25 11:00:18;;;;;;;0.17;0.17;;;18.60;99.90;;;;;;5088169;28;20057;-79
2023/09/25 11:02:44;;;;;;;0.20;0.20;;;18.60;99.90;;;;;;5083156;28;20046;-78
2023/09/25 11:05:11;;;;;;;0.10;0.10;;;18.70;99.90;;;;;;5088112;28;20036;-78
2023/09/25 11:07:37;;;;;;;0.20;0.20;;;18.80;99.90;;;;;;5086688;28;20086;-77
2023/09/25 11:10:04;;;;;;;0.20;0.20;;;18.80;99.90;;;;;;5086713;28;20048;-77
2023/09/25 11:12:33;;;;;;;0.13;0.13;;;18.90;99.90;;;;;;5088531;28;20451;-77
2023/09/25 11:14:59;;;;;;;0.20;0.20;;;19.00;99.90;;;;;;5088293;28;20052;-77
2023/09/25 11:17:26;;;;;;;0.17;0.17;;;19.20;99.90;;;;;;5086490;28;20071;-77
2023/09/25 11:19:52;;;;;;;0.20;0.20;;;19.20;99.90;;;;;;5074451;28;20041;-77
2023/09/25 11:22:24;;;;;;;0.20;0.20;;;19.30;99.90;;;;;;5083168;28;20075;-77
2023/09/25 11:24:58;;;;;;;0.20;0.20;;;19.50;99.90;;;;;;5077830;28;20094;-76
2023/09/25 11:27:24;;;;;;;0.20;0.20;;;19.60;99.90;;;;;;5081923;28;20130;-77
2023/09/25 11:29:51;;;;;;;0.20;0.20;;;19.60;99.90;;;;;;5086915;28;20685;-77
2023/09/25 11:32:17;;;;;;;0.20;0.20;;;19.70;99.90;;;;;;5079800;28;20052;-76
2023/09/25 11:34:47;;;;;;;0.20;0.20;;;19.80;99.90;;;;;;5072932;28;20048;-76
2023/09/25 11:37:20;;;;;;;0.20;0.20;;;19.90;99.90;;;;;;5080398;28;20048;-77
2023/09/25 11:39:47;;;;;;;0.20;0.20;;;19.90;99.90;;;;;;5075150;28;20051;-77
2023/09/25 11:42:12;;;;;;;0.20;0.20;;;20.00;99.90;;;;;;5079209;28;20187;-77
2023/09/25 11:44:38;;;;;;;0.10;0.10;;;20.20;99.90;;;;;;5075351;28;20045;-77
2023/09/25 11:47:06;;;;;;;0.20;0.20;;;20.40;99.90;;;;;;5078835;28;20044;-77
2023/09/25 11:49:32;;;;;;;0.30;0.30;;;20.50;99.90;;;;;;5076333;28;20162;-77
2023/09/25 11:51:57;;;;;;;0.20;0.20;;;20.50;99.90;;;;;;5082385;28;20689;-77
2023/09/25 11:54:23;;;;;;;0.15;0.15;;;20.40;99.90;;;;;;5083663;28;20046;-78
2023/09/25 11:56:49;;;;;;;0.20;0.20;;;20.40;99.90;;;;;;5083310;28;20044;-76
2023/09/25 11:59:16;;;;;;;0.20;0.20;;;20.40;99.90;;;;;;5080052;28;20036;-78
2023/09/25 12:01:41;;;;;;;0.20;0.20;;;20.40;99.90;;;;;;5084198;28;20044;-77
2023/09/25 12:04:09;;;;;;;0.13;0.13;;;20.40;99.90;;;;;;5085644;28;20063;-77
2023/09/25 12:06:35;;;;;;;0.20;0.20;;;20.40;99.90;;;;;;5079908;28;20053;-77
2023/09/25 12:09:10;;;;;;;0.20;0.20;;;20.30;99.90;;;;;;5073802;28;20044;-78
2023/09/25 12:11:37;;;;;;;0.20;0.20;;;20.50;99.90;;;;;;5081099;28;20040;-77
2023/09/25 12:14:04;;;;;;;0.20;0.20;;;20.60;99.90;;;;;;5082174;28;20063;-78
2023/09/25 12:16:30;;;;;;;0.20;0.20;;;20.80;99.90;;;;;;5082903;28;20135;-78
2023/09/25 12:18:56;;;;;;;0.20;0.20;;;21.00;99.90;;;;;;5083626;28;20046;-77
2023/09/25 12:21:22;;;;;;;0.20;0.20;;;21.30;99.90;;;;;;5083655;28;20051;-77
2023/09/25 12:23:48;;;;;;;0.20;0.20;;;21.60;99.90;;;;;;5091266;28;20040;-78
2023/09/25 12:26:15;;;;;;;0.20;0.20;;;21.80;99.90;;;;;;5091407;28;20098;-78
2023/09/25 12:28:41;;;;;;;0.20;0.20;;;22.00;99.90;;;;;;5088004;28;20438;-78
2023/09/25 12:31:07;;;;;;;0.20;0.20;;;22.00;99.90;;;;;;5086685;28;20510;-78
2023/09/25 12:33:33;;;;;;;0.20;0.20;;;22.00;99.90;;;;;;5089658;28;20044;-78
2023/09/25 12:35:59;;;;;;;0.20;0.20;;;21.90;99.90;;;;;;5086670;28;20047;-78
2023/09/25 12:38:25;;;;;;;0.20;0.20;;;21.90;99.90;;;;;;5091326;28;20055;-78
2023/09/25 12:40:51;;;;;;;0.20;0.20;;;21.90;99.90;;;;;;5091286;28;20048;-78
2023/09/25 12:43:17;;;;;;;0.20;0.20;;;21.80;99.90;;;;;;5092386;28;20115;-78
2023/09/25 12:45:42;;;;;;;0.20;0.20;;;21.70;99.90;;;;;;5087885;28;20039;-79
2023/09/25 12:48:08;;;;;;;0.20;0.20;;;21.60;99.90;;;;;;5085933;28;20629;-78